DLH1CF LEPA-EDLP
Flight info
| Callsign | DLH1CF |
|---|---|
| Flight time | N/A |
| Altitude | 38000 |
| Route | MEROS N853 LUMAS DCT UNANA DCT STP DCT RAPED DCT PIGOS DCT EKSID DCT NOSTA DCT NOPMU DCT ABESI DCT LOKTA/N0436F390 DCT TEDGO DCT HAREM DCT LOHRE/N0433F380 Z99 FUL T850 IDEWE T842 PELUN PELUN3H |
| Aircraft | A20N/M-SDE2E3FGHIRWXY/LB1 |
Departure
| Time | 2026-05-04 11:10 |
|---|---|
| Airport | Palma de Mallorca Airport (LEPA) |
Arrival
| Time | N/A |
|---|---|
| Airport | Paderborn Lippstadt Airport (EDLP) |
| Time | Latitude | Longitude | Altitude | Speed | Heading |
|---|---|---|---|---|---|
| 2026-05-04 10:26 | 39.54897 | 2.73805 | 33 ft | 0 kts | 239° |
| 2026-05-04 10:54 | 39.54933 | 2.73887 | 33 ft | 4 kts | 251° |
| 2026-05-04 10:54 | 39.54937 | 2.73920 | 33 ft | 4 kts | 288° |
| 2026-05-04 10:56 | 39.54930 | 2.73936 | 33 ft | 0 kts | 326° |
| 2026-05-04 10:58 | 39.54932 | 2.73935 | 33 ft | 1 kts | 326° |
| 2026-05-04 10:58 | 39.54947 | 2.73921 | 33 ft | 4 kts | 326° |
| 2026-05-04 10:58 | 39.54980 | 2.73892 | 33 ft | 7 kts | 326° |
| 2026-05-04 10:59 | 39.55029 | 2.73849 | 33 ft | 10 kts | 326° |
| 2026-05-04 10:59 | 39.55093 | 2.73801 | 33 ft | 9 kts | 334° |
| 2026-05-04 10:59 | 39.55159 | 2.73783 | 33 ft | 9 kts | 19° |
| 2026-05-04 10:59 | 39.55197 | 2.73815 | 33 ft | 7 kts | 4° |
| 2026-05-04 11:00 | 39.55247 | 2.73795 | 32 ft | 9 kts | 329° |
| 2026-05-04 11:01 | 39.55593 | 2.73514 | 34 ft | 0 kts | 342° |
| 2026-05-04 11:02 | 39.55601 | 2.73512 | 34 ft | 3 kts | 346° |
| 2026-05-04 11:02 | 39.55628 | 2.73505 | 33 ft | 5 kts | 355° |
| 2026-05-04 11:05 | 39.56021 | 2.74236 | 38 ft | 5 kts | 35° |
| 2026-05-04 11:06 | 39.56053 | 2.74266 | 38 ft | 2 kts | 37° |
| 2026-05-04 11:06 | 39.56061 | 2.74273 | 38 ft | 2 kts | 30° |
| 2026-05-04 11:06 | 39.56088 | 2.74295 | 39 ft | 9 kts | 34° |
| 2026-05-04 11:06 | 39.56121 | 2.74325 | 39 ft | 9 kts | 35° |
| 2026-05-04 11:08 | 39.55128 | 2.71971 | 363 ft | 144 kts | 237° |
| 2026-05-04 11:10 | 39.50490 | 2.62633 | 4382 ft | 207 kts | 237° |
| 2026-05-04 11:12 | 39.40819 | 2.56676 | 9418 ft | 256 kts | 158° |
| 2026-05-04 11:12 | 39.39376 | 2.58038 | 10109 ft | 267 kts | 139° |
| 2026-05-04 11:12 | 39.38119 | 2.59838 | 10755 ft | 272 kts | 135° |
| 2026-05-04 11:12 | 39.36872 | 2.61699 | 11410 ft | 275 kts | 136° |
| 2026-05-04 11:13 | 39.35567 | 2.63528 | 12058 ft | 278 kts | 138° |
| 2026-05-04 11:13 | 39.34206 | 2.65322 | 12710 ft | 281 kts | 140° |
| 2026-05-04 11:13 | 39.32803 | 2.67096 | 13351 ft | 284 kts | 141° |
| 2026-05-04 11:13 | 39.31352 | 2.68886 | 13832 ft | 294 kts | 141° |
| 2026-05-04 11:14 | 39.29862 | 2.70721 | 14382 ft | 297 kts | 141° |
| 2026-05-04 11:14 | 39.28380 | 2.72551 | 14945 ft | 300 kts | 141° |
| 2026-05-04 11:14 | 39.27136 | 2.74794 | 15302 ft | 322 kts | 118° |
| 2026-05-04 11:16 | 39.29361 | 2.97126 | 17801 ft | 422 kts | 52° |
| 2026-05-04 11:16 | 39.31007 | 3.00228 | 18346 ft | 428 kts | 54° |
| 2026-05-04 11:16 | 39.32611 | 3.03476 | 18955 ft | 429 kts | 57° |
| 2026-05-04 11:17 | 39.34167 | 3.06783 | 19439 ft | 435 kts | 58° |
| 2026-05-04 11:17 | 39.35719 | 3.10167 | 19900 ft | 440 kts | 58° |
| 2026-05-04 11:19 | 39.43658 | 3.27630 | 22355 ft | 461 kts | 59° |
| 2026-05-04 11:19 | 39.44287 | 3.28999 | 22541 ft | 462 kts | 59° |
| 2026-05-04 11:22 | 39.54478 | 3.51198 | 25228 ft | 479 kts | 58° |
| 2026-05-04 11:22 | 39.56204 | 3.54914 | 25600 ft | 483 kts | 59° |
| 2026-05-04 11:23 | 39.57929 | 3.58664 | 25956 ft | 486 kts | 59° |
| 2026-05-04 11:23 | 39.59658 | 3.62447 | 26315 ft | 489 kts | 59° |
| 2026-05-04 11:24 | 39.70176 | 3.85613 | 28283 ft | 507 kts | 59° |
| 2026-05-04 11:25 | 39.71966 | 3.89571 | 28607 ft | 509 kts | 59° |
| 2026-05-04 11:25 | 39.73762 | 3.93547 | 28927 ft | 511 kts | 59° |
| 2026-05-04 11:25 | 39.75543 | 3.97491 | 29208 ft | 514 kts | 60° |
| 2026-05-04 11:26 | 39.79175 | 4.05556 | 29772 ft | 519 kts | 60° |
| 2026-05-04 11:27 | 39.97273 | 4.26111 | 31673 ft | 500 kts | 358° |
| 2026-05-04 11:28 | 40.00726 | 4.26319 | 31902 ft | 495 kts | 353° |
| 2026-05-04 11:28 | 40.04175 | 4.26476 | 32268 ft | 496 kts | 356° |
| 2026-05-04 11:28 | 40.07621 | 4.26866 | 32638 ft | 498 kts | 359° |
| 2026-05-04 11:28 | 40.11060 | 4.27471 | 32991 ft | 499 kts | 1° |
| 2026-05-04 11:29 | 40.14484 | 4.28206 | 33319 ft | 499 kts | 2° |
| 2026-05-04 11:29 | 40.17902 | 4.29001 | 33657 ft | 499 kts | 3° |
| 2026-05-04 11:29 | 40.21277 | 4.29806 | 33908 ft | 499 kts | 3° |
| 2026-05-04 11:29 | 40.24687 | 4.30623 | 34179 ft | 498 kts | 3° |
| 2026-05-04 11:31 | 40.48435 | 4.36276 | 35809 ft | 494 kts | 3° |
| 2026-05-04 11:33 | 40.71905 | 4.41891 | 37188 ft | 488 kts | 3° |
| 2026-05-04 11:33 | 40.75243 | 4.42693 | 37358 ft | 487 kts | 3° |
| 2026-05-04 11:33 | 40.78577 | 4.43494 | 37520 ft | 487 kts | 3° |
| 2026-05-04 11:34 | 40.81862 | 4.44285 | 37678 ft | 486 kts | 3° |
| 2026-05-04 11:34 | 40.85181 | 4.45085 | 37868 ft | 485 kts | 3° |
| 2026-05-04 11:34 | 40.88498 | 4.45884 | 37986 ft | 484 kts | 3° |
| 2026-05-04 11:34 | 40.91810 | 4.46684 | 37994 ft | 483 kts | 3° |
| 2026-05-04 11:35 | 40.98422 | 4.48281 | 37993 ft | 483 kts | 3° |
| 2026-05-04 11:35 | 41.05043 | 4.49884 | 38019 ft | 483 kts | 3° |
| 2026-05-04 11:36 | 41.11658 | 4.51491 | 37993 ft | 483 kts | 4° |
| 2026-05-04 11:36 | 41.18232 | 4.53095 | 37995 ft | 484 kts | 4° |
| 2026-05-04 11:37 | 41.24851 | 4.54717 | 37993 ft | 484 kts | 4° |
| 2026-05-04 11:37 | 41.31479 | 4.56336 | 37995 ft | 485 kts | 4° |
| 2026-05-04 11:38 | 41.38108 | 4.57963 | 37991 ft | 482 kts | 4° |
| 2026-05-04 11:38 | 41.44634 | 4.59570 | 37994 ft | 480 kts | 3° |
| 2026-05-04 11:39 | 41.51225 | 4.61190 | 37995 ft | 483 kts | 4° |
| 2026-05-04 11:40 | 41.70940 | 4.66573 | 37971 ft | 493 kts | 17° |
| 2026-05-04 11:41 | 41.74032 | 4.68627 | 37973 ft | 500 kts | 27° |
| 2026-05-04 11:41 | 41.76859 | 4.71379 | 37974 ft | 505 kts | 39° |
| 2026-05-04 11:41 | 41.79396 | 4.74656 | 37973 ft | 507 kts | 42° |
| 2026-05-04 11:42 | 41.84424 | 4.81301 | 37982 ft | 508 kts | 42° |
| 2026-05-04 11:42 | 41.89460 | 4.87957 | 37996 ft | 509 kts | 42° |
| 2026-05-04 11:43 | 41.94469 | 4.94603 | 37997 ft | 510 kts | 42° |
| 2026-05-04 11:43 | 41.99513 | 5.01314 | 38002 ft | 511 kts | 41° |
| 2026-05-04 11:44 | 42.04565 | 5.08051 | 38021 ft | 512 kts | 42° |
| 2026-05-04 11:44 | 42.09605 | 5.14788 | 38014 ft | 510 kts | 42° |
| 2026-05-04 11:45 | 42.14613 | 5.21496 | 38008 ft | 511 kts | 42° |
| 2026-05-04 11:45 | 42.19651 | 5.28262 | 38012 ft | 511 kts | 42° |
| 2026-05-04 11:46 | 42.24680 | 5.35034 | 38015 ft | 511 kts | 41° |
| 2026-05-04 11:46 | 42.29700 | 5.41809 | 38017 ft | 510 kts | 42° |
| 2026-05-04 11:47 | 42.34709 | 5.48583 | 38021 ft | 509 kts | 42° |
| 2026-05-04 11:47 | 42.39675 | 5.55315 | 38016 ft | 509 kts | 42° |
| 2026-05-04 11:48 | 42.44668 | 5.62101 | 38018 ft | 509 kts | 42° |
| 2026-05-04 11:48 | 42.49663 | 5.68904 | 38031 ft | 509 kts | 41° |
| 2026-05-04 11:49 | 42.54629 | 5.75651 | 38026 ft | 508 kts | 41° |
| 2026-05-04 11:49 | 42.59613 | 5.82458 | 38027 ft | 508 kts | 41° |
| 2026-05-04 11:50 | 42.64581 | 5.89276 | 38030 ft | 508 kts | 41° |
| 2026-05-04 11:50 | 42.69545 | 5.96108 | 38032 ft | 508 kts | 41° |
| 2026-05-04 11:51 | 42.74503 | 6.02949 | 38032 ft | 508 kts | 41° |
| 2026-05-04 11:51 | 42.79423 | 6.09753 | 38014 ft | 508 kts | 41° |
| 2026-05-04 11:52 | 42.84370 | 6.16611 | 38048 ft | 508 kts | 41° |
| 2026-05-04 11:52 | 42.86965 | 6.19855 | 38189 ft | 504 kts | 35° |
| 2026-05-04 11:52 | 42.89660 | 6.22921 | 38273 ft | 505 kts | 35° |
| 2026-05-04 11:53 | 42.91860 | 6.25433 | 38301 ft | 507 kts | 36° |
| 2026-05-04 11:55 | 42.94560 | 6.28528 | 38302 ft | 507 kts | 36° |
| 2026-05-04 11:56 | 42.98613 | 6.33183 | 38352 ft | 510 kts | 36° |
| 2026-05-04 11:56 | 43.04058 | 6.39451 | 38430 ft | 513 kts | 36° |
| 2026-05-04 11:57 | 43.09529 | 6.45764 | 38532 ft | 515 kts | 36° |
| 2026-05-04 11:57 | 43.15000 | 6.52096 | 38656 ft | 515 kts | 36° |
| 2026-05-04 11:58 | 43.20380 | 6.58489 | 38733 ft | 518 kts | 41° |
| 2026-05-04 11:58 | 43.25052 | 6.66050 | 38886 ft | 520 kts | 52° |
| 2026-05-04 11:58 | 43.27161 | 6.70073 | 39003 ft | 518 kts | 52° |
| 2026-05-04 11:59 | 43.29282 | 6.74069 | 39056 ft | 518 kts | 52° |
| 2026-05-04 11:59 | 43.33519 | 6.82062 | 39076 ft | 518 kts | 52° |
| 2026-05-04 12:00 | 43.37712 | 6.90027 | 39075 ft | 518 kts | 52° |
| 2026-05-04 12:00 | 43.41926 | 6.98065 | 39100 ft | 518 kts | 52° |
| 2026-05-04 12:01 | 43.46114 | 7.06076 | 39077 ft | 515 kts | 52° |
| 2026-05-04 12:02 | 43.60693 | 7.34125 | 39111 ft | 514 kts | 52° |
| 2026-05-04 12:03 | 43.64825 | 7.42123 | 39098 ft | 512 kts | 52° |
| 2026-05-04 12:03 | 43.68954 | 7.50138 | 39084 ft | 512 kts | 52° |
| 2026-05-04 12:04 | 43.73052 | 7.58114 | 39086 ft | 512 kts | 53° |
| 2026-05-04 12:04 | 43.77169 | 7.66152 | 39090 ft | 512 kts | 52° |
| 2026-05-04 12:05 | 43.81468 | 7.73943 | 39097 ft | 507 kts | 44° |
| 2026-05-04 12:05 | 43.86629 | 7.80517 | 39102 ft | 501 kts | 33° |
| 2026-05-04 12:06 | 43.92183 | 7.86362 | 39118 ft | 501 kts | 30° |
| 2026-05-04 12:06 | 43.98167 | 7.90996 | 39130 ft | 492 kts | 19° |
| 2026-05-04 12:07 | 44.04547 | 7.94319 | 39132 ft | 488 kts | 15° |
| 2026-05-04 12:07 | 44.10928 | 7.97534 | 39115 ft | 487 kts | 15° |
| 2026-05-04 12:08 | 44.17298 | 8.00748 | 39123 ft | 486 kts | 15° |
| 2026-05-04 12:08 | 44.23589 | 8.03913 | 39121 ft | 484 kts | 15° |
| 2026-05-04 12:09 | 44.29937 | 8.07116 | 39111 ft | 486 kts | 15° |
| 2026-05-04 12:09 | 44.36300 | 8.10329 | 39113 ft | 486 kts | 15° |